sensor_id;sensor_type;location;lat;lon;timestamp;P1;durP1;ratioP1;P2;durP2;ratioP2
18867;SDS011;9563;49.240;9.088;2022-10-29T00:00:54;15.45;;;4.63;;
18867;SDS011;9563;49.240;9.088;2022-10-29T00:03:22;15.40;;;4.70;;
18867;SDS011;9563;49.240;9.088;2022-10-29T00:05:56;9.48;;;4.18;;
18867;SDS011;9563;49.240;9.088;2022-10-29T00:08:25;13.02;;;4.70;;
18867;SDS011;9563;49.240;9.088;2022-10-29T00:10:53;11.95;;;4.43;;
18867;SDS011;9563;49.240;9.088;2022-10-29T00:13:21;8.30;;;4.18;;
18867;SDS011;9563;49.240;9.088;2022-10-29T00:15:48;8.45;;;4.35;;
18867;SDS011;9563;49.240;9.088;2022-10-29T00:18:15;8.57;;;3.78;;
18867;SDS011;9563;49.240;9.088;2022-10-29T00:20:42;11.70;;;4.30;;
18867;SDS011;9563;49.240;9.088;2022-10-29T00:23:09;8.95;;;4.57;;
18867;SDS011;9563;49.240;9.088;2022-10-29T00:25:36;13.65;;;4.78;;
18867;SDS011;9563;49.240;9.088;2022-10-29T00:28:03;13.27;;;4.50;;
18867;SDS011;9563;49.240;9.088;2022-10-29T00:30:31;15.07;;;5.53;;
18867;SDS011;9563;49.240;9.088;2022-10-29T00:33:00;10.32;;;3.88;;
18867;SDS011;9563;49.240;9.088;2022-10-29T00:35:27;9.68;;;4.10;;
18867;SDS011;9563;49.240;9.088;2022-10-29T00:37:54;10.50;;;3.90;;
18867;SDS011;9563;49.240;9.088;2022-10-29T00:40:20;15.88;;;4.05;;
18867;SDS011;9563;49.240;9.088;2022-10-29T00:42:47;9.65;;;3.72;;
18867;SDS011;9563;49.240;9.088;2022-10-29T00:45:18;15.10;;;3.90;;
18867;SDS011;9563;49.240;9.088;2022-10-29T00:47:49;7.25;;;3.63;;
18867;SDS011;9563;49.240;9.088;2022-10-29T00:50:18;13.55;;;4.65;;
18867;SDS011;9563;49.240;9.088;2022-10-29T00:52:47;12.07;;;4.10;;
18867;SDS011;9563;49.240;9.088;2022-10-29T00:55:15;11.00;;;3.92;;
18867;SDS011;9563;49.240;9.088;2022-10-29T00:57:45;10.30;;;3.78;;
18867;SDS011;9563;49.240;9.088;2022-10-29T01:00:15;10.00;;;3.80;;
18867;SDS011;9563;49.240;9.088;2022-10-29T01:02:43;9.23;;;4.03;;
18867;SDS011;9563;49.240;9.088;2022-10-29T01:05:12;8.77;;;4.00;;
18867;SDS011;9563;49.240;9.088;2022-10-29T01:07:41;11.68;;;3.70;;
18867;SDS011;9563;49.240;9.088;2022-10-29T01:10:08;11.75;;;3.53;;
18867;SDS011;9563;49.240;9.088;2022-10-29T01:15:36;14.25;;;3.72;;
18867;SDS011;9563;49.240;9.088;2022-10-29T01:18:12;8.23;;;3.85;;
18867;SDS011;9563;49.240;9.088;2022-10-29T01:21:01;10.02;;;3.75;;
18867;SDS011;9563;49.240;9.088;2022-10-29T01:23:57;13.20;;;4.15;;
18867;SDS011;9563;49.240;9.088;2022-10-29T01:26:46;7.85;;;2.97;;
18867;SDS011;9563;49.240;9.088;2022-10-29T01:29:56;8.00;;;3.15;;
18867;SDS011;9563;49.240;9.088;2022-10-29T01:32:31;9.75;;;4.03;;
18867;SDS011;9563;49.240;9.088;2022-10-29T01:35:08;7.45;;;3.35;;
18867;SDS011;9563;49.240;9.088;2022-10-29T01:37:40;12.43;;;4.13;;
18867;SDS011;9563;49.240;9.088;2022-10-29T01:40:19;7.40;;;3.60;;
18867;SDS011;9563;49.240;9.088;2022-10-29T01:42:51;12.73;;;3.55;;
18867;SDS011;9563;49.240;9.088;2022-10-29T01:45:24;8.77;;;3.95;;
18867;SDS011;9563;49.240;9.088;2022-10-29T01:47:58;7.03;;;3.40;;
18867;SDS011;9563;49.240;9.088;2022-10-29T01:50:28;9.27;;;3.67;;
18867;SDS011;9563;49.240;9.088;2022-10-29T01:52:55;8.90;;;4.00;;
18867;SDS011;9563;49.240;9.088;2022-10-29T01:55:29;9.38;;;3.80;;
18867;SDS011;9563;49.240;9.088;2022-10-29T01:57:59;14.07;;;4.20;;
18867;SDS011;9563;49.240;9.088;2022-10-29T02:00:26;7.68;;;3.42;;
18867;SDS011;9563;49.240;9.088;2022-10-29T02:03:08;10.25;;;3.60;;
18867;SDS011;9563;49.240;9.088;2022-10-29T02:05:46;8.07;;;3.63;;
18867;SDS011;9563;49.240;9.088;2022-10-29T02:08:24;13.35;;;3.75;;
18867;SDS011;9563;49.240;9.088;2022-10-29T02:11:03;10.00;;;3.78;;
18867;SDS011;9563;49.240;9.088;2022-10-29T02:13:37;9.73;;;3.80;;
18867;SDS011;9563;49.240;9.088;2022-10-29T02:16:10;9.52;;;3.42;;
18867;SDS011;9563;49.240;9.088;2022-10-29T02:18:41;7.43;;;3.22;;
18867;SDS011;9563;49.240;9.088;2022-10-29T02:21:09;10.63;;;3.35;;
18867;SDS011;9563;49.240;9.088;2022-10-29T02:23:36;13.50;;;4.05;;
18867;SDS011;9563;49.240;9.088;2022-10-29T02:26:03;6.75;;;3.35;;
18867;SDS011;9563;49.240;9.088;2022-10-29T02:28:30;14.18;;;3.92;;
18867;SDS011;9563;49.240;9.088;2022-10-29T02:30:57;7.95;;;3.45;;
18867;SDS011;9563;49.240;9.088;2022-10-29T02:33:24;15.13;;;3.80;;
18867;SDS011;9563;49.240;9.088;2022-10-29T02:35:52;8.30;;;3.35;;
18867;SDS011;9563;49.240;9.088;2022-10-29T02:38:19;11.18;;;4.05;;
18867;SDS011;9563;49.240;9.088;2022-10-29T02:40:46;9.75;;;3.85;;
18867;SDS011;9563;49.240;9.088;2022-10-29T02:43:13;7.78;;;3.67;;
18867;SDS011;9563;49.240;9.088;2022-10-29T02:45:39;8.40;;;3.45;;
18867;SDS011;9563;49.240;9.088;2022-10-29T02:48:06;9.68;;;3.22;;
18867;SDS011;9563;49.240;9.088;2022-10-29T02:50:33;10.95;;;3.70;;
18867;SDS011;9563;49.240;9.088;2022-10-29T02:53:01;10.35;;;3.80;;
18867;SDS011;9563;49.240;9.088;2022-10-29T02:55:28;8.50;;;3.58;;
18867;SDS011;9563;49.240;9.088;2022-10-29T02:57:55;23.65;;;5.20;;
18867;SDS011;9563;49.240;9.088;2022-10-29T03:00:22;12.85;;;4.47;;
18867;SDS011;9563;49.240;9.088;2022-10-29T03:02:50;15.07;;;5.75;;
18867;SDS011;9563;49.240;9.088;2022-10-29T03:05:17;15.30;;;5.20;;
18867;SDS011;9563;49.240;9.088;2022-10-29T03:07:44;14.35;;;4.53;;
18867;SDS011;9563;49.240;9.088;2022-10-29T03:10:12;7.35;;;4.07;;
18867;SDS011;9563;49.240;9.088;2022-10-29T03:12:39;9.65;;;3.90;;
18867;SDS011;9563;49.240;9.088;2022-10-29T03:15:06;15.27;;;3.97;;
18867;SDS011;9563;49.240;9.088;2022-10-29T03:17:34;15.10;;;4.70;;
18867;SDS011;9563;49.240;9.088;2022-10-29T03:20:01;9.82;;;3.50;;
18867;SDS011;9563;49.240;9.088;2022-10-29T03:22:28;14.07;;;3.63;;
18867;SDS011;9563;49.240;9.088;2022-10-29T03:24:55;13.38;;;4.35;;
18867;SDS011;9563;49.240;9.088;2022-10-29T03:27:23;8.05;;;3.25;;
18867;SDS011;9563;49.240;9.088;2022-10-29T03:29:50;9.27;;;3.85;;
18867;SDS011;9563;49.240;9.088;2022-10-29T03:32:17;27.30;;;6.32;;
18867;SDS011;9563;49.240;9.088;2022-10-29T03:34:44;26.02;;;6.28;;
18867;SDS011;9563;49.240;9.088;2022-10-29T03:37:11;15.15;;;5.22;;
18867;SDS011;9563;49.240;9.088;2022-10-29T03:39:37;14.77;;;5.22;;
18867;SDS011;9563;49.240;9.088;2022-10-29T03:42:04;10.45;;;4.93;;
18867;SDS011;9563;49.240;9.088;2022-10-29T03:44:33;11.25;;;5.05;;
18867;SDS011;9563;49.240;9.088;2022-10-29T03:46:59;9.93;;;4.30;;
18867;SDS011;9563;49.240;9.088;2022-10-29T03:49:26;6.55;;;3.38;;
18867;SDS011;9563;49.240;9.088;2022-10-29T03:51:53;8.15;;;3.53;;
18867;SDS011;9563;49.240;9.088;2022-10-29T03:54:20;10.82;;;4.13;;
18867;SDS011;9563;49.240;9.088;2022-10-29T03:56:47;11.23;;;3.83;;
18867;SDS011;9563;49.240;9.088;2022-10-29T03:59:14;6.97;;;3.72;;
18867;SDS011;9563;49.240;9.088;2022-10-29T04:01:42;7.43;;;3.72;;
18867;SDS011;9563;49.240;9.088;2022-10-29T04:04:09;8.85;;;3.42;;
18867;SDS011;9563;49.240;9.088;2022-10-29T04:06:36;7.47;;;3.80;;
18867;SDS011;9563;49.240;9.088;2022-10-29T04:09:03;8.48;;;4.05;;
18867;SDS011;9563;49.240;9.088;2022-10-29T04:11:30;8.77;;;4.10;;
18867;SDS011;9563;49.240;9.088;2022-10-29T04:13:56;12.13;;;4.30;;
18867;SDS011;9563;49.240;9.088;2022-10-29T04:16:23;12.05;;;4.32;;
18867;SDS011;9563;49.240;9.088;2022-10-29T04:18:52;10.30;;;4.30;;
18867;SDS011;9563;49.240;9.088;2022-10-29T04:21:19;6.65;;;4.15;;
18867;SDS011;9563;49.240;9.088;2022-10-29T04:23:47;10.23;;;4.22;;
18867;SDS011;9563;49.240;9.088;2022-10-29T04:26:14;9.05;;;4.70;;
18867;SDS011;9563;49.240;9.088;2022-10-29T04:28:41;9.73;;;5.28;;
18867;SDS011;9563;49.240;9.088;2022-10-29T04:33:37;8.40;;;4.45;;
18867;SDS011;9563;49.240;9.088;2022-10-29T04:36:06;12.65;;;5.90;;
18867;SDS011;9563;49.240;9.088;2022-10-29T04:38:33;9.55;;;4.97;;
18867;SDS011;9563;49.240;9.088;2022-10-29T04:41:00;10.05;;;5.13;;
18867;SDS011;9563;49.240;9.088;2022-10-29T04:43:27;11.07;;;5.07;;
18867;SDS011;9563;49.240;9.088;2022-10-29T04:45:55;8.45;;;4.75;;
18867;SDS011;9563;49.240;9.088;2022-10-29T04:48:23;10.70;;;5.07;;
18867;SDS011;9563;49.240;9.088;2022-10-29T04:50:51;7.40;;;4.55;;
18867;SDS011;9563;49.240;9.088;2022-10-29T04:53:20;8.07;;;3.75;;
18867;SDS011;9563;49.240;9.088;2022-10-29T04:55:47;8.85;;;3.97;;
18867;SDS011;9563;49.240;9.088;2022-10-29T04:58:15;9.18;;;4.38;;
18867;SDS011;9563;49.240;9.088;2022-10-29T05:00:43;12.10;;;3.83;;
18867;SDS011;9563;49.240;9.088;2022-10-29T05:03:11;7.10;;;3.30;;
18867;SDS011;9563;49.240;9.088;2022-10-29T05:05:38;9.65;;;3.15;;
18867;SDS011;9563;49.240;9.088;2022-10-29T05:08:06;8.50;;;3.90;;
18867;SDS011;9563;49.240;9.088;2022-10-29T05:10:37;7.07;;;3.53;;
18867;SDS011;9563;49.240;9.088;2022-10-29T05:13:05;9.40;;;4.43;;
18867;SDS011;9563;49.240;9.088;2022-10-29T05:15:33;9.00;;;4.07;;
18867;SDS011;9563;49.240;9.088;2022-10-29T05:18:00;6.40;;;3.70;;
18867;SDS011;9563;49.240;9.088;2022-10-29T05:20:27;6.35;;;3.25;;
18867;SDS011;9563;49.240;9.088;2022-10-29T05:22:58;5.93;;;3.45;;
18867;SDS011;9563;49.240;9.088;2022-10-29T05:25:26;6.20;;;3.67;;
18867;SDS011;9563;49.240;9.088;2022-10-29T05:28:01;10.38;;;3.40;;
18867;SDS011;9563;49.240;9.088;2022-10-29T05:30:29;11.75;;;4.65;;
18867;SDS011;9563;49.240;9.088;2022-10-29T05:32:56;6.57;;;4.30;;
18867;SDS011;9563;49.240;9.088;2022-10-29T05:35:23;9.15;;;4.00;;
18867;SDS011;9563;49.240;9.088;2022-10-29T05:37:50;8.20;;;3.58;;
18867;SDS011;9563;49.240;9.088;2022-10-29T05:40:17;11.48;;;4.30;;
18867;SDS011;9563;49.240;9.088;2022-10-29T05:42:44;11.13;;;4.47;;
18867;SDS011;9563;49.240;9.088;2022-10-29T05:45:13;7.25;;;3.90;;
18867;SDS011;9563;49.240;9.088;2022-10-29T05:47:40;10.15;;;3.88;;
18867;SDS011;9563;49.240;9.088;2022-10-29T05:50:07;7.13;;;4.00;;
18867;SDS011;9563;49.240;9.088;2022-10-29T05:52:35;11.57;;;4.45;;
18867;SDS011;9563;49.240;9.088;2022-10-29T05:55:02;8.40;;;4.22;;
18867;SDS011;9563;49.240;9.088;2022-10-29T05:57:30;11.70;;;4.70;;
18867;SDS011;9563;49.240;9.088;2022-10-29T05:59:57;9.60;;;4.75;;
18867;SDS011;9563;49.240;9.088;2022-10-29T06:02:25;14.65;;;4.40;;
18867;SDS011;9563;49.240;9.088;2022-10-29T06:04:52;13.27;;;4.65;;
18867;SDS011;9563;49.240;9.088;2022-10-29T06:07:19;13.52;;;5.15;;
18867;SDS011;9563;49.240;9.088;2022-10-29T06:09:46;10.23;;;4.45;;
18867;SDS011;9563;49.240;9.088;2022-10-29T06:12:13;13.00;;;4.65;;
18867;SDS011;9563;49.240;9.088;2022-10-29T06:14:40;9.05;;;4.30;;
18867;SDS011;9563;49.240;9.088;2022-10-29T06:17:06;10.95;;;4.35;;
18867;SDS011;9563;49.240;9.088;2022-10-29T06:19:35;10.77;;;4.47;;
18867;SDS011;9563;49.240;9.088;2022-10-29T06:22:02;10.70;;;4.55;;
18867;SDS011;9563;49.240;9.088;2022-10-29T06:24:30;9.90;;;4.43;;
18867;SDS011;9563;49.240;9.088;2022-10-29T06:26:56;14.35;;;4.45;;
18867;SDS011;9563;49.240;9.088;2022-10-29T06:29:23;10.35;;;4.43;;
18867;SDS011;9563;49.240;9.088;2022-10-29T06:31:50;8.65;;;3.95;;
18867;SDS011;9563;49.240;9.088;2022-10-29T06:34:17;9.48;;;4.43;;
18867;SDS011;9563;49.240;9.088;2022-10-29T06:36:46;9.23;;;4.10;;
18867;SDS011;9563;49.240;9.088;2022-10-29T06:39:13;14.20;;;4.82;;
18867;SDS011;9563;49.240;9.088;2022-10-29T06:41:40;18.60;;;4.35;;
18867;SDS011;9563;49.240;9.088;2022-10-29T06:44:07;7.47;;;4.30;;
18867;SDS011;9563;49.240;9.088;2022-10-29T06:46:33;13.57;;;5.15;;
18867;SDS011;9563;49.240;9.088;2022-10-29T06:49:00;12.30;;;5.10;;
18867;SDS011;9563;49.240;9.088;2022-10-29T06:51:27;11.30;;;4.82;;
18867;SDS011;9563;49.240;9.088;2022-10-29T06:53:56;16.95;;;5.30;;
18867;SDS011;9563;49.240;9.088;2022-10-29T06:56:23;13.27;;;5.07;;
18867;SDS011;9563;49.240;9.088;2022-10-29T06:58:50;15.00;;;6.10;;
18867;SDS011;9563;49.240;9.088;2022-10-29T07:01:16;14.80;;;4.65;;
18867;SDS011;9563;49.240;9.088;2022-10-29T07:03:43;8.73;;;4.95;;
18867;SDS011;9563;49.240;9.088;2022-10-29T07:06:10;9.68;;;4.57;;
18867;SDS011;9563;49.240;9.088;2022-10-29T07:08:37;11.38;;;4.75;;
18867;SDS011;9563;49.240;9.088;2022-10-29T07:11:06;14.25;;;5.15;;
18867;SDS011;9563;49.240;9.088;2022-10-29T07:13:33;10.38;;;4.80;;
18867;SDS011;9563;49.240;9.088;2022-10-29T07:16:00;12.43;;;5.22;;
18867;SDS011;9563;49.240;9.088;2022-10-29T07:18:27;12.35;;;4.25;;
18867;SDS011;9563;49.240;9.088;2022-10-29T07:20:56;11.07;;;4.50;;
18867;SDS011;9563;49.240;9.088;2022-10-29T07:23:23;10.05;;;4.78;;
18867;SDS011;9563;49.240;9.088;2022-10-29T07:25:50;9.57;;;4.32;;
18867;SDS011;9563;49.240;9.088;2022-10-29T07:28:20;17.33;;;6.22;;
18867;SDS011;9563;49.240;9.088;2022-10-29T07:30:49;11.70;;;5.30;;
18867;SDS011;9563;49.240;9.088;2022-10-29T07:33:17;14.10;;;5.05;;
18867;SDS011;9563;49.240;9.088;2022-10-29T07:35:44;9.20;;;4.43;;
18867;SDS011;9563;49.240;9.088;2022-10-29T07:38:11;15.02;;;4.60;;
18867;SDS011;9563;49.240;9.088;2022-10-29T07:40:39;10.45;;;4.68;;
18867;SDS011;9563;49.240;9.088;2022-10-29T07:43:12;9.50;;;4.40;;
18867;SDS011;9563;49.240;9.088;2022-10-29T07:45:40;7.57;;;3.90;;
18867;SDS011;9563;49.240;9.088;2022-10-29T07:48:07;11.27;;;4.28;;
18867;SDS011;9563;49.240;9.088;2022-10-29T07:50:35;11.38;;;4.55;;
18867;SDS011;9563;49.240;9.088;2022-10-29T07:53:04;13.65;;;4.90;;
18867;SDS011;9563;49.240;9.088;2022-10-29T07:55:31;18.42;;;5.25;;
18867;SDS011;9563;49.240;9.088;2022-10-29T07:57:59;16.80;;;4.95;;
18867;SDS011;9563;49.240;9.088;2022-10-29T08:00:27;9.38;;;4.47;;
18867;SDS011;9563;49.240;9.088;2022-10-29T08:02:55;16.75;;;5.22;;
18867;SDS011;9563;49.240;9.088;2022-10-29T08:05:23;16.83;;;5.65;;
18867;SDS011;9563;49.240;9.088;2022-10-29T08:07:51;8.95;;;4.50;;
18867;SDS011;9563;49.240;9.088;2022-10-29T08:10:19;16.45;;;5.40;;
18867;SDS011;9563;49.240;9.088;2022-10-29T08:12:49;22.17;;;5.60;;
18867;SDS011;9563;49.240;9.088;2022-10-29T08:15:17;15.38;;;5.95;;
18867;SDS011;9563;49.240;9.088;2022-10-29T08:17:44;12.00;;;4.53;;
18867;SDS011;9563;49.240;9.088;2022-10-29T08:20:13;20.88;;;4.45;;
18867;SDS011;9563;49.240;9.088;2022-10-29T08:22:40;9.38;;;4.55;;
18867;SDS011;9563;49.240;9.088;2022-10-29T08:25:08;11.15;;;4.35;;
18867;SDS011;9563;49.240;9.088;2022-10-29T08:27:35;16.50;;;5.07;;
18867;SDS011;9563;49.240;9.088;2022-10-29T08:30:02;16.65;;;5.15;;
18867;SDS011;9563;49.240;9.088;2022-10-29T08:32:29;15.35;;;4.90;;
18867;SDS011;9563;49.240;9.088;2022-10-29T08:34:56;10.43;;;5.07;;
18867;SDS011;9563;49.240;9.088;2022-10-29T08:37:25;14.82;;;5.35;;
18867;SDS011;9563;49.240;9.088;2022-10-29T08:39:51;11.32;;;5.30;;
18867;SDS011;9563;49.240;9.088;2022-10-29T08:42:22;16.75;;;5.18;;
18867;SDS011;9563;49.240;9.088;2022-10-29T08:45:04;19.50;;;5.30;;
18867;SDS011;9563;49.240;9.088;2022-10-29T08:47:43;16.00;;;5.10;;
18867;SDS011;9563;49.240;9.088;2022-10-29T08:50:16;15.95;;;5.53;;
18867;SDS011;9563;49.240;9.088;2022-10-29T08:52:50;17.85;;;6.35;;
18867;SDS011;9563;49.240;9.088;2022-10-29T08:55:18;14.65;;;5.28;;
18867;SDS011;9563;49.240;9.088;2022-10-29T08:57:48;11.88;;;5.72;;
18867;SDS011;9563;49.240;9.088;2022-10-29T09:00:20;13.68;;;5.82;;
18867;SDS011;9563;49.240;9.088;2022-10-29T09:02:51;9.88;;;5.13;;
18867;SDS011;9563;49.240;9.088;2022-10-29T09:05:20;17.83;;;5.03;;
18867;SDS011;9563;49.240;9.088;2022-10-29T09:07:57;13.63;;;5.13;;
18867;SDS011;9563;49.240;9.088;2022-10-29T09:10:31;22.65;;;5.35;;
18867;SDS011;9563;49.240;9.088;2022-10-29T09:13:09;109.18;;;8.60;;
18867;SDS011;9563;49.240;9.088;2022-10-29T09:15:52;13.25;;;5.57;;
18867;SDS011;9563;49.240;9.088;2022-10-29T09:18:28;13.70;;;5.40;;
18867;SDS011;9563;49.240;9.088;2022-10-29T09:21:07;21.00;;;5.78;;
18867;SDS011;9563;49.240;9.088;2022-10-29T09:23:53;18.17;;;5.47;;
18867;SDS011;9563;49.240;9.088;2022-10-29T09:26:27;18.05;;;5.35;;
18867;SDS011;9563;49.240;9.088;2022-10-29T09:29:01;14.88;;;5.88;;
18867;SDS011;9563;49.240;9.088;2022-10-29T09:31:49;16.75;;;5.53;;
18867;SDS011;9563;49.240;9.088;2022-10-29T09:34:24;17.55;;;5.97;;
18867;SDS011;9563;49.240;9.088;2022-10-29T09:36:56;14.40;;;5.25;;
18867;SDS011;9563;49.240;9.088;2022-10-29T09:39:27;20.85;;;5.22;;
18867;SDS011;9563;49.240;9.088;2022-10-29T09:41:58;21.38;;;5.82;;
18867;SDS011;9563;49.240;9.088;2022-10-29T09:44:29;16.77;;;4.80;;
18867;SDS011;9563;49.240;9.088;2022-10-29T09:47:03;16.33;;;4.97;;
18867;SDS011;9563;49.240;9.088;2022-10-29T09:49:43;26.10;;;5.60;;
18867;SDS011;9563;49.240;9.088;2022-10-29T09:52:20;19.60;;;5.53;;
18867;SDS011;9563;49.240;9.088;2022-10-29T09:54:51;14.20;;;4.93;;
18867;SDS011;9563;49.240;9.088;2022-10-29T09:57:21;18.05;;;5.45;;
18867;SDS011;9563;49.240;9.088;2022-10-29T09:59:50;17.23;;;4.97;;
18867;SDS011;9563;49.240;9.088;2022-10-29T10:02:23;11.82;;;5.15;;
18867;SDS011;9563;49.240;9.088;2022-10-29T10:04:55;15.98;;;5.10;;
18867;SDS011;9563;49.240;9.088;2022-10-29T10:07:26;11.05;;;4.88;;
18867;SDS011;9563;49.240;9.088;2022-10-29T10:09:55;19.45;;;5.70;;
18867;SDS011;9563;49.240;9.088;2022-10-29T10:12:24;19.48;;;6.03;;
18867;SDS011;9563;49.240;9.088;2022-10-29T10:15:05;14.77;;;5.22;;
18867;SDS011;9563;49.240;9.088;2022-10-29T10:17:52;20.13;;;5.25;;
18867;SDS011;9563;49.240;9.088;2022-10-29T10:20:29;15.32;;;5.05;;
18867;SDS011;9563;49.240;9.088;2022-10-29T10:22:58;7.82;;;4.05;;
18867;SDS011;9563;49.240;9.088;2022-10-29T10:25:34;11.25;;;4.35;;
18867;SDS011;9563;49.240;9.088;2022-10-29T10:28:03;15.32;;;4.22;;
18867;SDS011;9563;49.240;9.088;2022-10-29T10:30:44;10.70;;;4.25;;
18867;SDS011;9563;49.240;9.088;2022-10-29T10:33:25;11.65;;;4.57;;
18867;SDS011;9563;49.240;9.088;2022-10-29T10:35:52;12.85;;;4.55;;
18867;SDS011;9563;49.240;9.088;2022-10-29T10:38:20;12.60;;;4.30;;
18867;SDS011;9563;49.240;9.088;2022-10-29T10:43:31;11.98;;;4.70;;
18867;SDS011;9563;49.240;9.088;2022-10-29T10:46:02;10.50;;;4.30;;
18867;SDS011;9563;49.240;9.088;2022-10-29T10:48:31;12.85;;;4.50;;
18867;SDS011;9563;49.240;9.088;2022-10-29T10:51:08;15.27;;;4.30;;
18867;SDS011;9563;49.240;9.088;2022-10-29T10:53:37;11.35;;;3.72;;
18867;SDS011;9563;49.240;9.088;2022-10-29T10:56:12;17.88;;;4.43;;
18867;SDS011;9563;49.240;9.088;2022-10-29T10:58:44;12.05;;;4.05;;
18867;SDS011;9563;49.240;9.088;2022-10-29T11:01:19;18.42;;;4.82;;
18867;SDS011;9563;49.240;9.088;2022-10-29T11:03:54;15.25;;;4.50;;
18867;SDS011;9563;49.240;9.088;2022-10-29T11:06:28;12.18;;;4.18;;
18867;SDS011;9563;49.240;9.088;2022-10-29T11:09:00;12.88;;;4.05;;
18867;SDS011;9563;49.240;9.088;2022-10-29T11:11:32;15.98;;;4.50;;
18867;SDS011;9563;49.240;9.088;2022-10-29T11:14:04;23.27;;;4.40;;
18867;SDS011;9563;49.240;9.088;2022-10-29T11:16:40;18.27;;;4.35;;
18867;SDS011;9563;49.240;9.088;2022-10-29T11:19:13;14.18;;;4.30;;
18867;SDS011;9563;49.240;9.088;2022-10-29T11:21:45;12.15;;;4.07;;
18867;SDS011;9563;49.240;9.088;2022-10-29T11:24:22;12.50;;;4.18;;
18867;SDS011;9563;49.240;9.088;2022-10-29T11:26:58;10.65;;;4.03;;
18867;SDS011;9563;49.240;9.088;2022-10-29T11:29:46;20.80;;;4.03;;
18867;SDS011;9563;49.240;9.088;2022-10-29T11:32:19;10.48;;;3.90;;
18867;SDS011;9563;49.240;9.088;2022-10-29T11:34:52;16.83;;;4.20;;
18867;SDS011;9563;49.240;9.088;2022-10-29T11:37:28;17.75;;;4.95;;
18867;SDS011;9563;49.240;9.088;2022-10-29T11:40:00;17.00;;;4.32;;
18867;SDS011;9563;49.240;9.088;2022-10-29T11:42:32;15.32;;;4.25;;
18867;SDS011;9563;49.240;9.088;2022-10-29T11:45:00;20.10;;;4.15;;
18867;SDS011;9563;49.240;9.088;2022-10-29T11:47:37;18.60;;;4.85;;
18867;SDS011;9563;49.240;9.088;2022-10-29T11:50:24;18.30;;;4.88;;
18867;SDS011;9563;49.240;9.088;2022-10-29T11:53:00;12.48;;;3.83;;
18867;SDS011;9563;49.240;9.088;2022-10-29T11:55:37;10.57;;;3.88;;
18867;SDS011;9563;49.240;9.088;2022-10-29T11:58:14;10.57;;;4.07;;
18867;SDS011;9563;49.240;9.088;2022-10-29T12:00:47;15.65;;;4.07;;
18867;SDS011;9563;49.240;9.088;2022-10-29T12:06:27;12.43;;;4.25;;
18867;SDS011;9563;49.240;9.088;2022-10-29T12:09:05;13.40;;;4.13;;
18867;SDS011;9563;49.240;9.088;2022-10-29T12:11:49;16.20;;;4.18;;
18867;SDS011;9563;49.240;9.088;2022-10-29T12:14:25;17.15;;;4.40;;
18867;SDS011;9563;49.240;9.088;2022-10-29T12:16:58;16.48;;;4.55;;
18867;SDS011;9563;49.240;9.088;2022-10-29T12:19:34;17.98;;;4.10;;
18867;SDS011;9563;49.240;9.088;2022-10-29T12:22:11;16.85;;;4.55;;
18867;SDS011;9563;49.240;9.088;2022-10-29T12:25:00;12.00;;;4.35;;
18867;SDS011;9563;49.240;9.088;2022-10-29T12:27:41;21.73;;;4.47;;
18867;SDS011;9563;49.240;9.088;2022-10-29T12:30:17;13.95;;;4.07;;
18867;SDS011;9563;49.240;9.088;2022-10-29T12:32:47;15.52;;;4.78;;
18867;SDS011;9563;49.240;9.088;2022-10-29T12:35:22;15.10;;;3.63;;
18867;SDS011;9563;49.240;9.088;2022-10-29T12:38:01;14.82;;;4.22;;
18867;SDS011;9563;49.240;9.088;2022-10-29T12:40:36;15.15;;;4.10;;
18867;SDS011;9563;49.240;9.088;2022-10-29T12:43:12;13.02;;;4.40;;
18867;SDS011;9563;49.240;9.088;2022-10-29T12:45:47;18.20;;;4.65;;
18867;SDS011;9563;49.240;9.088;2022-10-29T12:48:25;10.43;;;3.95;;
18867;SDS011;9563;49.240;9.088;2022-10-29T12:51:00;16.35;;;4.43;;
18867;SDS011;9563;49.240;9.088;2022-10-29T12:53:34;12.48;;;4.38;;
18867;SDS011;9563;49.240;9.088;2022-10-29T12:56:10;18.35;;;5.07;;
18867;SDS011;9563;49.240;9.088;2022-10-29T12:58:42;17.30;;;4.72;;
18867;SDS011;9563;49.240;9.088;2022-10-29T13:04:12;11.02;;;4.10;;
18867;SDS011;9563;49.240;9.088;2022-10-29T13:06:55;13.55;;;3.83;;
18867;SDS011;9563;49.240;9.088;2022-10-29T13:09:27;13.35;;;3.97;;
18867;SDS011;9563;49.240;9.088;2022-10-29T13:11:56;15.73;;;4.93;;
18867;SDS011;9563;49.240;9.088;2022-10-29T13:14:26;18.05;;;4.85;;
18867;SDS011;9563;49.240;9.088;2022-10-29T13:17:06;17.10;;;4.82;;
18867;SDS011;9563;49.240;9.088;2022-10-29T13:19:50;18.10;;;4.72;;
18867;SDS011;9563;49.240;9.088;2022-10-29T13:31:39;18.95;;;5.43;;
18867;SDS011;9563;49.240;9.088;2022-10-29T13:43:27;22.40;;;4.80;;
18867;SDS011;9563;49.240;9.088;2022-10-29T13:49:18;16.05;;;4.63;;
18867;SDS011;9563;49.240;9.088;2022-10-29T13:51:55;12.60;;;4.43;;
18867;SDS011;9563;49.240;9.088;2022-10-29T13:54:27;19.23;;;4.88;;
18867;SDS011;9563;49.240;9.088;2022-10-29T13:57:02;12.18;;;4.57;;
18867;SDS011;9563;49.240;9.088;2022-10-29T13:59:39;17.48;;;4.38;;
18867;SDS011;9563;49.240;9.088;2022-10-29T14:02:17;14.00;;;4.40;;
18867;SDS011;9563;49.240;9.088;2022-10-29T14:04:51;18.17;;;4.53;;
18867;SDS011;9563;49.240;9.088;2022-10-29T14:07:22;15.45;;;4.82;;
18867;SDS011;9563;49.240;9.088;2022-10-29T14:09:58;13.57;;;4.82;;
18867;SDS011;9563;49.240;9.088;2022-10-29T14:12:29;13.70;;;4.80;;
18867;SDS011;9563;49.240;9.088;2022-10-29T14:14:59;13.55;;;4.57;;
18867;SDS011;9563;49.240;9.088;2022-10-29T14:17:31;15.48;;;4.60;;
18867;SDS011;9563;49.240;9.088;2022-10-29T14:19:58;15.55;;;4.80;;
18867;SDS011;9563;49.240;9.088;2022-10-29T14:22:29;18.77;;;5.30;;
18867;SDS011;9563;49.240;9.088;2022-10-29T14:25:01;18.27;;;4.18;;
18867;SDS011;9563;49.240;9.088;2022-10-29T14:27:49;15.02;;;4.95;;
18867;SDS011;9563;49.240;9.088;2022-10-29T14:30:33;15.55;;;4.55;;
18867;SDS011;9563;49.240;9.088;2022-10-29T14:33:01;19.08;;;5.05;;
18867;SDS011;9563;49.240;9.088;2022-10-29T14:35:41;13.85;;;4.68;;
18867;SDS011;9563;49.240;9.088;2022-10-29T14:38:09;16.05;;;4.78;;
18867;SDS011;9563;49.240;9.088;2022-10-29T14:40:39;11.23;;;4.55;;
18867;SDS011;9563;49.240;9.088;2022-10-29T14:43:11;15.55;;;4.30;;
18867;SDS011;9563;49.240;9.088;2022-10-29T14:45:46;13.82;;;4.43;;
18867;SDS011;9563;49.240;9.088;2022-10-29T14:48:13;9.00;;;4.10;;
18867;SDS011;9563;49.240;9.088;2022-10-29T14:50:43;13.85;;;4.28;;
18867;SDS011;9563;49.240;9.088;2022-10-29T14:53:18;19.17;;;4.85;;
18867;SDS011;9563;49.240;9.088;2022-10-29T14:55:53;23.02;;;5.30;;
18867;SDS011;9563;49.240;9.088;2022-10-29T14:58:21;11.38;;;4.78;;
18867;SDS011;9563;49.240;9.088;2022-10-29T15:00:52;19.00;;;4.68;;
18867;SDS011;9563;49.240;9.088;2022-10-29T15:03:22;13.88;;;4.85;;
18867;SDS011;9563;49.240;9.088;2022-10-29T15:05:51;11.88;;;4.00;;
18867;SDS011;9563;49.240;9.088;2022-10-29T15:08:39;9.38;;;4.50;;
18867;SDS011;9563;49.240;9.088;2022-10-29T15:14:01;9.07;;;4.13;;
18867;SDS011;9563;49.240;9.088;2022-10-29T15:16:29;18.40;;;5.40;;
18867;SDS011;9563;49.240;9.088;2022-10-29T15:18:57;11.50;;;4.55;;
18867;SDS011;9563;49.240;9.088;2022-10-29T15:21:26;13.73;;;4.85;;
18867;SDS011;9563;49.240;9.088;2022-10-29T15:23:57;18.27;;;4.82;;
18867;SDS011;9563;49.240;9.088;2022-10-29T15:26:29;13.45;;;4.82;;
18867;SDS011;9563;49.240;9.088;2022-10-29T15:28:57;13.18;;;4.28;;
18867;SDS011;9563;49.240;9.088;2022-10-29T15:31:27;12.45;;;4.50;;
18867;SDS011;9563;49.240;9.088;2022-10-29T15:33:56;17.45;;;4.90;;
18867;SDS011;9563;49.240;9.088;2022-10-29T15:36:45;14.32;;;4.97;;
18867;SDS011;9563;49.240;9.088;2022-10-29T15:39:22;33.13;;;6.07;;
18867;SDS011;9563;49.240;9.088;2022-10-29T15:41:52;20.25;;;5.43;;
18867;SDS011;9563;49.240;9.088;2022-10-29T15:44:33;19.00;;;5.22;;
18867;SDS011;9563;49.240;9.088;2022-10-29T15:47:17;15.80;;;4.93;;
18867;SDS011;9563;49.240;9.088;2022-10-29T15:49:45;22.30;;;4.95;;
18867;SDS011;9563;49.240;9.088;2022-10-29T15:52:13;10.43;;;4.55;;